createdAt,value
2019-03-01T00:00:11.950Z,22.30
2019-03-01T00:01:11.928Z,22.30
2019-03-01T00:02:11.906Z,21.80
2019-03-01T00:03:11.885Z,22.50
2019-03-01T00:04:11.861Z,23.20
2019-03-01T00:05:11.838Z,22.60
2019-03-01T00:06:11.819Z,23.00
2019-03-01T00:07:11.796Z,24.30
2019-03-01T00:08:11.779Z,23.10
2019-03-01T00:09:11.752Z,25.20
2019-03-01T00:10:11.731Z,25.10
2019-03-01T00:11:11.708Z,24.30
2019-03-01T00:12:11.688Z,24.20
2019-03-01T00:13:11.668Z,25.60
2019-03-01T00:14:11.648Z,24.60
2019-03-01T00:15:11.630Z,24.90
2019-03-01T00:16:11.599Z,25.30
2019-03-01T00:17:11.578Z,25.40
2019-03-01T00:18:11.559Z,25.10
2019-03-01T00:19:11.537Z,25.70
2019-03-01T00:20:11.520Z,25.90
2019-03-01T00:21:11.501Z,25.20
2019-03-01T00:22:11.467Z,25.10
2019-03-01T00:23:11.456Z,26.30
2019-03-01T00:24:11.439Z,27.20
2019-03-01T00:25:11.400Z,27.90
2019-03-01T00:26:11.381Z,27.00
2019-03-01T00:27:11.355Z,27.80
2019-03-01T00:28:11.342Z,27.60
2019-03-01T00:29:11.313Z,26.70
2019-03-01T00:30:11.295Z,27.40
2019-03-01T00:31:11.275Z,28.20
2019-03-01T00:32:11.248Z,27.40
2019-03-01T00:33:11.227Z,28.60
2019-03-01T00:34:11.206Z,27.70
2019-03-01T00:35:11.181Z,27.40
2019-03-01T00:36:11.165Z,28.30
2019-03-01T00:37:11.143Z,27.30
2019-03-01T00:38:11.123Z,28.40
2019-03-01T00:39:11.096Z,28.20
2019-03-01T00:40:11.075Z,27.50
2019-03-01T00:41:11.052Z,28.20
2019-03-01T00:42:11.030Z,27.10
2019-03-01T00:43:11.007Z,28.20
2019-03-01T00:44:10.985Z,27.10
2019-03-01T00:45:10.965Z,29.00
2019-03-01T00:46:10.944Z,28.30
2019-03-01T00:47:10.923Z,28.20
2019-03-01T00:48:10.897Z,27.50
2019-03-01T00:49:10.885Z,27.90
2019-03-01T00:50:10.856Z,28.60
2019-03-01T00:51:10.837Z,27.80
2019-03-01T00:52:10.820Z,28.70
2019-03-01T00:53:10.788Z,28.30
2019-03-01T00:54:10.766Z,27.40
2019-03-01T00:55:10.746Z,28.00
2019-03-01T00:56:10.724Z,28.90
2019-03-01T00:57:10.701Z,27.20
2019-03-01T00:58:10.678Z,28.00
2019-03-01T00:59:10.656Z,29.20
2019-03-01T01:00:10.637Z,27.50
2019-03-01T01:01:10.615Z,27.80
2019-03-01T01:02:10.599Z,27.40
2019-03-01T01:03:10.569Z,28.00
2019-03-01T01:04:10.552Z,27.20
2019-03-01T01:05:10.527Z,27.90
2019-03-01T01:06:10.514Z,28.70
2019-03-01T01:07:10.482Z,30.00
2019-03-01T01:08:10.459Z,29.30
2019-03-01T01:09:10.472Z,28.70
2019-03-01T01:10:10.416Z,29.20
2019-03-01T01:11:10.393Z,27.50
2019-03-01T01:12:10.384Z,28.70
2019-03-01T01:13:10.388Z,28.60
2019-03-01T01:14:10.333Z,29.10
2019-03-01T01:15:10.309Z,29.50
2019-03-01T01:16:10.293Z,30.80
2019-03-01T01:17:10.267Z,28.90
2019-03-01T01:18:10.240Z,30.30
2019-03-01T01:19:10.221Z,31.30
2019-03-01T01:20:10.196Z,30.80
2019-03-01T01:21:10.175Z,32.30
2019-03-01T01:22:10.153Z,31.50
2019-03-01T01:23:10.134Z,32.30
2019-03-01T01:24:10.114Z,32.10
2019-03-01T01:25:10.090Z,33.80
2019-03-01T01:26:10.067Z,32.20
2019-03-01T01:27:10.044Z,32.50
2019-03-01T01:28:10.021Z,32.00
2019-03-01T01:29:10.005Z,33.10
2019-03-01T01:30:09.986Z,32.80
2019-03-01T01:31:09.962Z,32.20
2019-03-01T01:32:09.932Z,33.70
2019-03-01T01:33:09.911Z,34.10
2019-03-01T01:34:09.888Z,35.00
2019-03-01T01:35:09.868Z,34.50
2019-03-01T01:36:09.848Z,36.00
2019-03-01T01:37:09.832Z,34.40
2019-03-01T01:38:09.916Z,34.70
2019-03-01T01:39:09.778Z,34.80
2019-03-01T01:40:09.758Z,35.00
2019-03-01T01:41:09.743Z,37.10
2019-03-01T01:42:09.715Z,34.60
2019-03-01T01:43:09.692Z,36.80
2019-03-01T01:44:09.673Z,37.30
2019-03-01T01:45:09.653Z,35.80
2019-03-01T01:46:09.633Z,37.00
2019-03-01T01:47:09.625Z,37.80
2019-03-01T01:48:09.591Z,37.80
2019-03-01T01:49:09.560Z,36.90
2019-03-01T01:50:09.540Z,35.90
2019-03-01T01:51:09.521Z,38.80
2019-03-01T01:52:09.496Z,39.00
2019-03-01T01:53:09.473Z,39.60
2019-03-01T01:54:09.454Z,37.30
2019-03-01T01:55:09.433Z,39.50
2019-03-01T01:56:09.415Z,39.80
2019-03-01T01:57:09.387Z,38.50
2019-03-01T01:58:09.365Z,40.00
2019-03-01T01:59:09.342Z,39.80
2019-03-01T02:00:09.323Z,40.80
2019-03-01T02:01:09.299Z,39.20
2019-03-01T02:02:09.279Z,41.40
2019-03-01T02:03:09.256Z,40.10
2019-03-01T02:04:09.237Z,41.20
2019-03-01T02:05:09.212Z,40.50
2019-03-01T02:06:09.190Z,41.20
2019-03-01T02:07:09.170Z,41.90
2019-03-01T02:08:09.146Z,42.50
2019-03-01T02:09:09.123Z,42.10
2019-03-01T02:10:09.106Z,42.10
2019-03-01T02:11:09.078Z,41.30
2019-03-01T02:12:09.059Z,39.00
2019-03-01T02:13:09.042Z,41.80
2019-03-01T02:14:09.024Z,41.60
2019-03-01T02:15:08.991Z,43.30
2019-03-01T02:16:08.970Z,44.10
2019-03-01T02:17:08.947Z,43.20
2019-03-01T02:18:08.924Z,44.30
2019-03-01T02:19:08.911Z,44.20
2019-03-01T02:20:08.882Z,44.70
2019-03-01T02:21:08.859Z,43.00
2019-03-01T02:22:08.836Z,43.60
2019-03-01T02:23:08.821Z,44.70
2019-03-01T02:24:08.794Z,41.30
2019-03-01T02:25:08.773Z,41.70
2019-03-01T02:26:08.754Z,43.10
2019-03-01T02:27:08.732Z,45.30
2019-03-01T02:28:08.712Z,43.80
2019-03-01T02:29:08.686Z,43.30
2019-03-01T02:30:08.664Z,44.80
2019-03-01T02:31:08.641Z,44.80
2019-03-01T02:32:08.618Z,43.50
2019-03-01T02:33:08.595Z,44.80
2019-03-01T02:34:08.588Z,45.80
2019-03-01T02:35:08.553Z,45.10
2019-03-01T02:36:08.531Z,46.40
2019-03-01T02:37:08.508Z,43.70
2019-03-01T02:38:08.491Z,45.30
2019-03-01T02:39:08.467Z,46.40
2019-03-01T02:40:08.441Z,44.80
2019-03-01T02:41:08.421Z,44.40
2019-03-01T02:42:08.398Z,45.30
2019-03-01T02:43:08.377Z,44.80
2019-03-01T02:44:08.354Z,45.80
2019-03-01T02:45:08.346Z,45.40
2019-03-01T02:46:08.316Z,43.80
2019-03-01T02:47:08.296Z,46.00
2019-03-01T02:48:08.271Z,43.50
2019-03-01T02:49:08.256Z,43.60
2019-03-01T02:50:08.225Z,45.40
2019-03-01T02:51:08.201Z,45.70
2019-03-01T02:52:08.180Z,46.60
2019-03-01T02:53:08.161Z,43.70
2019-03-01T02:54:08.135Z,46.20
2019-03-01T02:55:08.118Z,44.60
2019-03-01T02:56:08.097Z,43.60
2019-03-01T02:57:08.073Z,44.80
2019-03-01T02:58:08.051Z,43.20
2019-03-01T02:59:08.026Z,46.30
2019-03-01T03:00:08.007Z,45.20
2019-03-01T03:01:07.984Z,47.00
2019-03-01T03:02:07.959Z,44.60
2019-03-01T03:03:07.959Z,44.40
2019-03-01T03:04:07.914Z,46.30
2019-03-01T03:05:07.906Z,43.60
2019-03-01T03:06:07.876Z,42.00
2019-03-01T03:07:07.854Z,45.40
2019-03-01T03:08:07.830Z,44.70
2019-03-01T03:09:07.807Z,46.00
2019-03-01T03:10:07.792Z,45.80
2019-03-01T03:11:07.759Z,45.40
2019-03-01T03:12:07.741Z,45.10
2019-03-01T03:13:07.715Z,44.80
2019-03-01T03:14:07.695Z,45.50
2019-03-01T03:15:07.676Z,46.30
2019-03-01T03:16:07.651Z,44.50
2019-03-01T03:17:07.628Z,45.20
2019-03-01T03:18:07.606Z,45.80
2019-03-01T03:19:07.585Z,47.90
2019-03-01T03:20:07.563Z,45.30
2019-03-01T03:21:07.542Z,46.10
2019-03-01T03:22:07.528Z,47.20
2019-03-01T03:23:07.499Z,44.50
2019-03-01T03:24:07.474Z,45.40
2019-03-01T03:25:07.466Z,45.20
2019-03-01T03:26:07.438Z,44.20
2019-03-01T03:27:07.405Z,45.20
2019-03-01T03:28:07.386Z,44.70
2019-03-01T03:29:07.363Z,46.50
2019-03-01T03:30:07.341Z,45.30
2019-03-01T03:31:07.325Z,46.90
2019-03-01T03:32:07.325Z,46.40
2019-03-01T03:33:07.276Z,46.10
2019-03-01T03:34:07.254Z,43.10
2019-03-01T03:35:07.233Z,45.00
2019-03-01T03:36:07.210Z,45.70
2019-03-01T03:37:07.186Z,47.10
2019-03-01T03:38:07.168Z,46.20
2019-03-01T03:39:07.148Z,42.60
2019-03-01T03:40:07.121Z,42.80
2019-03-01T03:41:07.103Z,46.50
2019-03-01T03:42:07.077Z,44.50
2019-03-01T03:43:07.061Z,45.20
2019-03-01T03:44:07.033Z,46.60
2019-03-01T03:45:07.011Z,45.60
2019-03-01T03:46:06.992Z,43.40
2019-03-01T03:47:06.966Z,46.60
2019-03-01T03:48:06.946Z,43.90
2019-03-01T03:49:06.927Z,46.80
2019-03-01T03:50:06.980Z,46.50
2019-03-01T03:51:06.891Z,45.00
2019-03-01T03:52:06.856Z,44.00
2019-03-01T03:53:06.838Z,44.80
2019-03-01T03:54:06.813Z,46.40
2019-03-01T03:55:06.795Z,45.80
2019-03-01T03:56:06.773Z,45.10
2019-03-01T03:57:06.750Z,44.30
2019-03-01T03:58:06.727Z,46.50
2019-03-01T03:59:06.704Z,45.10
2019-03-01T04:00:06.682Z,44.10
2019-03-01T04:01:06.661Z,46.20
2019-03-01T04:02:06.638Z,45.10
2019-03-01T04:03:06.615Z,44.60
2019-03-01T04:04:06.595Z,45.60
2019-03-01T04:05:06.575Z,45.00
2019-03-01T04:06:06.552Z,48.10
2019-03-01T04:07:06.535Z,45.70
2019-03-01T04:08:06.505Z,45.40
2019-03-01T04:09:06.482Z,46.30
2019-03-01T04:10:06.463Z,47.60
2019-03-01T04:11:06.444Z,46.40
2019-03-01T04:12:06.419Z,46.10
2019-03-01T04:13:06.396Z,47.00
2019-03-01T04:14:06.373Z,47.60
2019-03-01T04:15:06.355Z,46.60
2019-03-01T04:16:06.332Z,46.10
2019-03-01T04:17:06.309Z,46.10
2019-03-01T04:18:06.289Z,46.30
2019-03-01T04:19:06.264Z,48.20
2019-03-01T04:20:06.250Z,46.60
2019-03-01T04:21:06.218Z,47.30
2019-03-01T04:22:06.195Z,47.20
2019-03-01T04:23:06.176Z,49.30
2019-03-01T04:24:06.159Z,48.00
2019-03-01T04:25:06.134Z,47.70
2019-03-01T04:26:06.119Z,49.00
2019-03-01T04:27:06.095Z,49.00
2019-03-01T04:28:06.067Z,50.10
2019-03-01T04:29:06.043Z,48.10
2019-03-01T04:30:06.021Z,48.80
2019-03-01T04:31:06.003Z,48.20
2019-03-01T04:32:05.979Z,48.80
2019-03-01T04:33:05.972Z,49.50
2019-03-01T04:34:06.151Z,47.80
2019-03-01T04:35:05.920Z,48.10
2019-03-01T04:36:05.889Z,50.00
2019-03-01T04:37:05.870Z,51.10
2019-03-01T04:38:05.850Z,49.30
2019-03-01T04:39:05.823Z,48.50
2019-03-01T04:40:06.882Z,51.80
2019-03-01T04:41:05.778Z,49.60
2019-03-01T04:42:05.765Z,50.20
2019-03-01T04:43:05.735Z,51.00
2019-03-01T04:44:05.713Z,49.10
2019-03-01T04:45:05.692Z,50.60
2019-03-01T04:46:05.671Z,49.60
2019-03-01T04:47:05.647Z,50.60
2019-03-01T04:48:05.627Z,50.90
2019-03-01T04:49:05.605Z,50.00
2019-03-01T04:50:05.578Z,49.30
2019-03-01T04:51:05.561Z,48.40
2019-03-01T04:52:05.539Z,48.30
2019-03-01T04:53:05.519Z,49.10
2019-03-01T04:54:05.492Z,49.70
2019-03-01T04:55:05.470Z,47.40
2019-03-01T04:56:05.449Z,47.90
2019-03-01T04:57:05.428Z,48.00
2019-03-01T04:58:05.405Z,48.80
2019-03-01T04:59:05.385Z,47.60
2019-03-01T05:00:05.379Z,48.10
2019-03-01T05:01:05.342Z,48.90
2019-03-01T05:02:05.315Z,49.00
2019-03-01T05:03:05.293Z,48.60
2019-03-01T05:04:05.273Z,49.40
2019-03-01T05:05:05.253Z,49.20
2019-03-01T05:06:05.265Z,48.30
2019-03-01T05:07:05.219Z,47.90
2019-03-01T05:08:05.183Z,47.10
2019-03-01T05:09:05.162Z,45.30
2019-03-01T05:10:05.141Z,47.00
2019-03-01T05:11:05.117Z,47.50
2019-03-01T05:12:05.098Z,46.90
2019-03-01T05:13:05.071Z,48.30
2019-03-01T05:14:05.052Z,47.50
2019-03-01T05:15:05.028Z,47.20
2019-03-01T05:16:05.006Z,48.10
2019-03-01T05:17:04.986Z,47.40
2019-03-01T05:18:04.973Z,47.40
2019-03-01T05:19:04.948Z,46.60
2019-03-01T05:20:04.926Z,47.70
2019-03-01T05:21:04.904Z,47.50
2019-03-01T05:22:04.874Z,47.60
2019-03-01T05:23:04.852Z,49.10
2019-03-01T05:24:04.829Z,47.70
2019-03-01T05:25:04.809Z,48.80
2019-03-01T05:26:04.790Z,47.70
2019-03-01T05:27:04.763Z,48.20
2019-03-01T05:28:04.746Z,48.20
2019-03-01T05:29:04.725Z,46.70
2019-03-01T05:30:04.704Z,48.00
2019-03-01T05:31:04.681Z,48.70
2019-03-01T05:32:04.653Z,48.30
2019-03-01T05:33:04.632Z,46.80
2019-03-01T05:34:04.611Z,48.30
2019-03-01T05:35:04.592Z,49.30
2019-03-01T05:36:04.572Z,48.90
2019-03-01T05:37:04.544Z,49.30
2019-03-01T05:38:04.522Z,48.20
2019-03-01T05:39:04.503Z,48.80
2019-03-01T05:40:04.479Z,48.80
2019-03-01T05:41:04.457Z,48.70
2019-03-01T05:42:04.434Z,49.50
2019-03-01T05:43:04.441Z,47.80
2019-03-01T05:44:04.390Z,47.10
2019-03-01T05:45:04.364Z,48.10
2019-03-01T05:46:04.348Z,49.00
2019-03-01T05:47:04.324Z,48.80
2019-03-01T05:48:04.308Z,48.80
2019-03-01T05:49:04.278Z,47.70
2019-03-01T05:50:04.300Z,47.70
2019-03-01T05:51:04.236Z,50.30
2019-03-01T05:52:04.217Z,48.80
2019-03-01T05:53:04.190Z,48.40
2019-03-01T05:54:04.170Z,49.20
2019-03-01T05:55:04.149Z,48.20
2019-03-01T05:56:04.125Z,49.80
2019-03-01T05:57:04.105Z,47.90
2019-03-01T05:58:04.088Z,48.70
2019-03-01T05:59:04.057Z,48.90
2019-03-01T06:00:04.035Z,49.00
2019-03-01T06:01:04.017Z,47.90
2019-03-01T06:02:03.995Z,49.00
2019-03-01T06:03:03.971Z,48.70
2019-03-01T06:04:03.948Z,48.70
2019-03-01T06:05:03.929Z,48.60
2019-03-01T06:06:03.905Z,49.80
2019-03-01T06:07:03.891Z,49.30
2019-03-01T06:08:03.866Z,50.20
2019-03-01T06:09:03.838Z,49.10
2019-03-01T06:10:03.821Z,47.80
2019-03-01T06:11:03.802Z,48.70
2019-03-01T06:12:03.777Z,49.00
2019-03-01T06:13:03.753Z,48.50
2019-03-01T06:14:03.728Z,49.60
2019-03-01T06:15:03.707Z,49.80
2019-03-01T06:16:03.693Z,49.50
2019-03-01T06:17:03.662Z,49.60
2019-03-01T06:18:03.649Z,48.50
2019-03-01T06:19:03.617Z,48.50
2019-03-01T06:20:03.601Z,49.50
2019-03-01T06:21:03.576Z,49.50
2019-03-01T06:22:03.553Z,49.20
2019-03-01T06:23:03.535Z,49.00
2019-03-01T06:24:03.509Z,50.70
2019-03-01T06:25:03.500Z,50.10
2019-03-01T06:26:03.467Z,50.10
2019-03-01T06:27:03.444Z,49.40
2019-03-01T06:28:03.425Z,50.30
2019-03-01T06:29:03.407Z,49.50
2019-03-01T06:30:03.383Z,48.80
2019-03-01T06:31:03.354Z,48.90
2019-03-01T06:32:03.333Z,48.50
2019-03-01T06:33:03.312Z,49.40
2019-03-01T06:34:03.292Z,48.70
2019-03-01T06:35:03.271Z,48.90
2019-03-01T06:36:03.257Z,46.60
2019-03-01T06:37:03.224Z,48.30
2019-03-01T06:38:03.208Z,49.20
2019-03-01T06:39:03.179Z,49.50
2019-03-01T06:40:03.158Z,48.10
2019-03-01T06:41:03.134Z,48.70
2019-03-01T06:42:03.113Z,49.10
2019-03-01T06:43:03.095Z,48.90
2019-03-01T06:44:03.070Z,49.10
2019-03-01T06:45:03.049Z,49.60
2019-03-01T06:46:03.027Z,47.90
2019-03-01T06:47:03.005Z,48.70
2019-03-01T06:48:02.991Z,48.30
2019-03-01T06:49:02.960Z,49.20
2019-03-01T06:50:02.939Z,50.60
2019-03-01T06:51:02.923Z,47.90
2019-03-01T06:52:02.896Z,50.30
2019-03-01T06:53:02.870Z,48.80
2019-03-01T06:54:02.860Z,48.80
2019-03-01T06:55:02.829Z,48.80
2019-03-01T06:56:02.806Z,49.30
2019-03-01T06:57:02.783Z,48.00
2019-03-01T06:58:02.765Z,47.40
2019-03-01T06:59:02.742Z,46.70
2019-03-01T07:00:02.733Z,47.00
2019-03-01T07:01:02.695Z,46.00
2019-03-01T07:02:02.928Z,47.70
2019-03-01T07:03:02.651Z,48.10
2019-03-01T07:04:02.629Z,48.50
2019-03-01T07:05:02.619Z,47.40
2019-03-01T07:06:03.555Z,47.00
2019-03-01T07:07:02.564Z,48.90
2019-03-01T07:08:02.558Z,48.90
2019-03-01T07:09:02.520Z,48.50
2019-03-01T07:10:02.498Z,48.20
2019-03-01T07:11:02.476Z,50.00
2019-03-01T07:12:02.463Z,48.00
2019-03-01T07:13:02.432Z,51.60
2019-03-01T07:14:02.411Z,51.60
2019-03-01T07:15:02.387Z,47.60
2019-03-01T07:16:02.369Z,50.90
2019-03-01T07:17:02.344Z,49.60
2019-03-01T07:18:02.329Z,48.00
2019-03-01T07:19:02.302Z,48.30
2019-03-01T07:20:02.280Z,51.20
2019-03-01T07:21:02.263Z,48.90
2019-03-01T07:22:02.234Z,48.30
2019-03-01T07:23:02.223Z,50.10
2019-03-01T07:24:02.218Z,49.20
2019-03-01T07:25:02.171Z,47.90
2019-03-01T07:26:02.159Z,49.70
2019-03-01T07:27:02.133Z,51.30
2019-03-01T07:28:02.109Z,50.20
2019-03-01T07:29:02.086Z,52.90
2019-03-01T07:30:02.076Z,49.40
2019-03-01T07:31:02.044Z,54.90
2019-03-01T07:32:02.017Z,51.10
2019-03-01T07:33:02.001Z,53.70
2019-03-01T07:34:01.977Z,51.80
2019-03-01T07:35:01.955Z,48.80
2019-03-01T07:36:01.933Z,50.70
2019-03-01T07:37:01.919Z,53.70
2019-03-01T07:38:01.898Z,52.30
2019-03-01T07:39:01.872Z,51.30
2019-03-01T07:40:01.883Z,52.40
2019-03-01T07:41:01.825Z,53.20
2019-03-01T07:42:01.795Z,55.10
2019-03-01T07:43:01.773Z,52.50
2019-03-01T07:44:01.756Z,53.40
2019-03-01T07:45:01.731Z,54.10
2019-03-01T07:46:01.708Z,53.80
2019-03-01T07:47:01.686Z,53.50
2019-03-01T07:48:01.662Z,52.90
2019-03-01T07:49:01.640Z,54.20
2019-03-01T07:50:01.620Z,54.80
2019-03-01T07:51:02.452Z,54.40
2019-03-01T07:52:04.646Z,54.00
2019-03-01T07:53:03.695Z,55.10
2019-03-01T07:54:01.538Z,52.60
2019-03-01T07:55:01.516Z,54.30
2019-03-01T07:56:03.991Z,53.90
2019-03-01T07:57:01.474Z,56.00
2019-03-01T07:58:01.445Z,52.30
2019-03-01T07:59:01.421Z,56.10
2019-03-01T08:00:01.400Z,55.00
2019-03-01T08:01:01.504Z,55.60
2019-03-01T08:02:04.133Z,56.00
2019-03-01T08:03:01.333Z,53.50
2019-03-01T08:04:01.310Z,54.90
2019-03-01T08:05:04.098Z,54.10
2019-03-01T08:06:01.265Z,55.00
2019-03-01T08:07:01.249Z,55.20
2019-03-01T08:08:03.497Z,56.20
2019-03-01T08:09:01.199Z,57.50
2019-03-01T08:10:01.181Z,55.20
2019-03-01T08:11:01.153Z,54.90
2019-03-01T08:12:03.715Z,56.10
2019-03-01T08:13:01.108Z,55.70
2019-03-01T08:14:01.086Z,58.30
2019-03-01T08:15:04.089Z,55.50
2019-03-01T08:16:01.042Z,54.90
2019-03-01T08:17:01.024Z,57.30
2019-03-01T08:18:04.833Z,57.10
2019-03-01T08:19:00.982Z,56.30
2019-03-01T08:20:00.954Z,56.70
2019-03-01T08:21:00.934Z,56.60
2019-03-01T08:22:00.910Z,57.80
2019-03-01T08:23:02.053Z,58.70
2019-03-01T08:24:00.876Z,56.40
2019-03-01T08:25:00.846Z,57.10
2019-03-01T08:26:00.820Z,57.40
2019-03-01T08:27:00.803Z,57.40
2019-03-01T08:28:00.776Z,55.40
2019-03-01T08:29:00.756Z,57.60
2019-03-01T08:30:00.760Z,58.30
2019-03-01T08:31:00.712Z,56.40
2019-03-01T08:32:00.688Z,57.10
2019-03-01T08:33:02.710Z,58.90
2019-03-01T08:34:00.649Z,57.80
2019-03-01T08:35:00.650Z,58.30
2019-03-01T08:36:02.364Z,53.40
2019-03-01T08:37:00.581Z,56.10
2019-03-01T08:38:00.577Z,57.30
2019-03-01T08:39:00.931Z,57.00
2019-03-01T08:40:00.513Z,54.90
2019-03-01T08:41:00.488Z,50.50
2019-03-01T08:42:01.370Z,49.70
2019-03-01T08:43:00.442Z,54.40
2019-03-01T08:44:00.428Z,54.30
2019-03-01T08:45:00.397Z,49.60
2019-03-01T08:46:00.378Z,47.40
2019-03-01T08:47:00.357Z,50.60
2019-03-01T08:48:00.334Z,47.40
2019-03-01T08:49:00.317Z,49.50
2019-03-01T08:50:00.412Z,47.00
2019-03-01T08:51:00.278Z,48.10
2019-03-01T08:52:01.456Z,48.70
2019-03-01T08:53:00.230Z,47.30
2019-03-01T08:54:00.229Z,48.50
2019-03-01T08:55:03.495Z,45.30
2019-03-01T08:56:00.156Z,45.40
2019-03-01T08:57:00.608Z,46.10
2019-03-01T08:58:03.757Z,45.20
2019-03-01T08:59:00.893Z,42.30
2019-03-01T09:00:00.102Z,46.90
2019-03-01T09:01:03.145Z,44.00
2019-03-01T09:02:00.023Z,46.20
2019-03-01T09:02:59.999Z,44.70
2019-03-01T09:03:59.979Z,43.90
2019-03-01T09:04:59.954Z,45.20
2019-03-01T09:05:59.932Z,44.90
2019-03-01T09:06:59.916Z,45.90
2019-03-01T09:07:59.888Z,43.80
2019-03-01T09:09:00.765Z,45.00
2019-03-01T09:09:59.847Z,45.40
2019-03-01T09:10:59.821Z,45.20
2019-03-01T09:11:59.801Z,45.00
2019-03-01T09:12:59.782Z,46.00
2019-03-01T09:13:59.764Z,45.40
2019-03-01T09:14:59.734Z,45.50
2019-03-01T09:15:59.719Z,44.60
2019-03-01T09:16:59.690Z,45.20
2019-03-01T09:17:59.667Z,43.70
2019-03-01T09:18:59.643Z,44.30
2019-03-01T09:20:00.193Z,44.00
2019-03-01T09:21:05.660Z,44.30
2019-03-01T09:21:59.580Z,45.90
2019-03-01T09:22:59.556Z,45.40
2019-03-01T09:23:59.539Z,43.60
2019-03-01T09:25:02.610Z,46.90
2019-03-01T09:25:59.495Z,45.50
2019-03-01T09:26:59.464Z,47.50
2019-03-01T09:27:59.449Z,44.40
2019-03-01T09:28:59.425Z,45.20
2019-03-01T09:30:03.149Z,44.40
2019-03-01T09:30:59.375Z,45.80
2019-03-01T09:31:59.370Z,46.60
2019-03-01T09:32:59.340Z,48.20
2019-03-01T09:33:59.310Z,46.30
2019-03-01T09:34:59.286Z,44.50
2019-03-01T09:35:59.267Z,46.00
2019-03-01T09:36:59.254Z,47.20
2019-03-01T09:37:59.220Z,47.70
2019-03-01T09:38:59.204Z,49.30
2019-03-01T09:40:05.560Z,46.30
2019-03-01T09:41:01.322Z,46.60
2019-03-01T09:42:04.294Z,46.60
2019-03-01T09:43:00.941Z,47.20
2019-03-01T09:43:59.664Z,48.90
2019-03-01T09:44:59.065Z,47.90
2019-03-01T09:45:59.043Z,49.20
2019-03-01T09:47:01.742Z,49.70
2019-03-01T09:47:58.996Z,46.40
2019-03-01T09:48:58.988Z,47.40
2019-03-01T09:50:00.219Z,47.40
2019-03-01T09:50:58.934Z,46.80
2019-03-01T09:51:58.908Z,47.30
2019-03-01T09:52:59.832Z,47.90
2019-03-01T09:53:58.872Z,49.10
2019-03-01T09:54:58.846Z,49.10
2019-03-01T09:56:00.078Z,50.60
2019-03-01T09:56:58.800Z,49.10
2019-03-01T09:57:58.777Z,47.40
2019-03-01T09:58:58.757Z,48.00
2019-03-01T09:59:58.732Z,45.90
2019-03-01T10:00:58.713Z,45.20
2019-03-01T10:01:58.712Z,44.90
2019-03-01T10:02:58.694Z,46.00
2019-03-01T10:03:58.644Z,42.70
2019-03-01T10:04:58.622Z,44.40
2019-03-01T10:05:58.612Z,42.90
2019-03-01T10:06:58.581Z,44.40
2019-03-01T10:07:58.555Z,44.20
2019-03-01T10:08:58.534Z,44.60
2019-03-01T10:09:58.512Z,44.50
2019-03-01T10:10:58.490Z,45.20
2019-03-01T10:11:58.476Z,44.00
2019-03-01T10:12:58.453Z,43.80
2019-03-01T10:13:58.437Z,43.80
2019-03-01T10:14:58.404Z,44.40
2019-03-01T10:15:58.379Z,43.20
2019-03-01T10:16:58.406Z,42.90
2019-03-01T10:17:58.352Z,43.40
2019-03-01T10:18:58.313Z,44.50
2019-03-01T10:19:58.290Z,45.10
2019-03-01T10:20:58.271Z,45.80
2019-03-01T10:21:58.250Z,45.10
2019-03-01T10:22:58.229Z,46.70
2019-03-01T10:23:58.204Z,45.30
2019-03-01T10:24:58.184Z,47.20
2019-03-01T10:25:58.160Z,47.10
2019-03-01T10:26:58.137Z,47.40
2019-03-01T10:27:58.114Z,45.40
2019-03-01T10:28:58.104Z,45.20
2019-03-01T10:29:58.079Z,47.60
2019-03-01T10:30:58.049Z,58.90
2019-03-01T10:31:58.038Z,61.10
2019-03-01T10:32:58.014Z,62.70
2019-03-01T10:33:57.991Z,70.60
2019-03-01T10:34:57.970Z,69.30
2019-03-01T10:35:57.939Z,71.40
2019-03-01T10:36:57.917Z,76.20
2019-03-01T10:37:57.903Z,73.40
2019-03-01T10:38:57.871Z,76.10
2019-03-01T10:39:57.849Z,76.20
2019-03-01T10:40:57.834Z,74.80
2019-03-01T10:41:57.809Z,79.70
2019-03-01T10:42:57.790Z,77.60
2019-03-01T10:43:57.777Z,77.20
2019-03-01T10:44:57.748Z,76.00
2019-03-01T10:45:57.716Z,77.40
2019-03-01T10:46:58.998Z,78.00
2019-03-01T10:47:57.675Z,79.60
2019-03-01T10:48:57.649Z,80.10
2019-03-01T10:49:57.623Z,76.40
2019-03-01T10:50:57.602Z,75.10
2019-03-01T10:51:57.580Z,75.20
2019-03-01T10:52:57.555Z,75.10
2019-03-01T10:53:57.535Z,69.20
2019-03-01T10:54:57.509Z,65.00
2019-03-01T10:55:57.491Z,66.60
2019-03-01T10:56:57.463Z,66.30
2019-03-01T10:57:57.444Z,67.00
2019-03-01T10:58:58.434Z,62.10
2019-03-01T10:59:57.395Z,60.00
2019-03-01T11:00:57.374Z,55.90
2019-03-01T11:01:57.351Z,54.50
2019-03-01T11:02:57.328Z,53.90
2019-03-01T11:03:57.304Z,50.50
2019-03-01T11:04:57.279Z,51.90
2019-03-01T11:05:57.256Z,51.90
2019-03-01T11:06:57.241Z,51.50
2019-03-01T11:07:57.212Z,52.00
2019-03-01T11:08:57.201Z,52.40
2019-03-01T11:09:57.167Z,54.50
2019-03-01T11:10:57.143Z,53.90
2019-03-01T11:11:57.131Z,55.00
2019-03-01T11:12:57.100Z,56.80
2019-03-01T11:13:57.074Z,57.20
2019-03-01T11:14:57.055Z,57.20
2019-03-01T11:15:57.041Z,57.70
2019-03-01T11:16:57.002Z,60.30
2019-03-01T11:17:56.980Z,59.20
2019-03-01T11:18:56.967Z,59.30
2019-03-01T11:19:56.932Z,59.00
2019-03-01T11:20:56.913Z,59.20
2019-03-01T11:21:56.889Z,55.80
2019-03-01T11:22:56.864Z,53.70
2019-03-01T11:23:56.838Z,49.40
2019-03-01T11:24:56.822Z,49.60
2019-03-01T11:25:56.813Z,46.90
2019-03-01T11:26:56.773Z,47.20
2019-03-01T11:27:56.748Z,44.60
2019-03-01T11:28:56.724Z,42.10
2019-03-01T11:29:56.735Z,40.80
2019-03-01T11:30:56.682Z,38.80
2019-03-01T11:31:56.656Z,38.00
2019-03-01T11:32:56.629Z,38.60
2019-03-01T11:33:56.605Z,38.10
2019-03-01T11:34:56.583Z,38.00
2019-03-01T11:35:56.558Z,39.80
2019-03-01T11:36:56.535Z,37.50
2019-03-01T11:37:56.512Z,37.50
2019-03-01T11:38:56.488Z,39.20
2019-03-01T11:39:56.464Z,37.90
2019-03-01T11:40:56.452Z,38.90
2019-03-01T11:41:56.417Z,39.60
2019-03-01T11:42:56.396Z,39.60
2019-03-01T11:43:56.374Z,39.40
2019-03-01T11:44:56.351Z,38.10
2019-03-01T11:45:56.329Z,40.20
2019-03-01T11:46:56.298Z,41.60
2019-03-01T11:47:56.279Z,38.50
2019-03-01T11:48:56.262Z,39.20
2019-03-01T11:49:56.233Z,39.30
2019-03-01T11:50:56.220Z,38.90
2019-03-01T11:51:56.182Z,39.50
2019-03-01T11:52:56.161Z,35.90
2019-03-01T11:53:56.141Z,36.80
2019-03-01T11:54:56.113Z,35.00
2019-03-01T11:55:56.091Z,34.90
2019-03-01T11:56:56.064Z,35.60
2019-03-01T11:57:56.098Z,33.20
2019-03-01T11:58:56.016Z,33.50
2019-03-01T11:59:56.006Z,33.60
2019-03-01T12:00:55.980Z,33.00
2019-03-01T12:01:55.951Z,33.10
2019-03-01T12:02:55.928Z,30.60
2019-03-01T12:03:55.908Z,29.50
2019-03-01T12:04:55.880Z,28.10
2019-03-01T12:05:55.869Z,27.90
2019-03-01T12:06:55.836Z,26.50
2019-03-01T12:07:55.807Z,27.30
2019-03-01T12:08:55.790Z,25.90
2019-03-01T12:09:55.758Z,24.70
2019-03-01T12:10:55.736Z,25.70
2019-03-01T12:11:55.712Z,26.50
2019-03-01T12:12:55.692Z,26.20
2019-03-01T12:13:55.667Z,24.90
2019-03-01T12:14:55.645Z,25.90
2019-03-01T12:15:55.617Z,26.00
2019-03-01T12:16:55.593Z,26.00
2019-03-01T12:17:55.574Z,26.10
2019-03-01T12:18:55.554Z,26.40
2019-03-01T12:19:55.525Z,26.50
2019-03-01T12:20:55.514Z,25.40
2019-03-01T12:21:55.486Z,24.60
2019-03-01T12:22:55.454Z,24.60
2019-03-01T12:23:55.426Z,24.60
2019-03-01T12:24:55.403Z,23.80
2019-03-01T12:25:55.386Z,24.20
2019-03-01T12:26:55.362Z,24.10
2019-03-01T12:27:55.339Z,24.30
2019-03-01T12:28:55.308Z,24.50
2019-03-01T12:29:55.284Z,24.10
2019-03-01T12:30:55.263Z,23.30
2019-03-01T12:31:55.238Z,23.70
2019-03-01T12:32:55.224Z,22.90
2019-03-01T12:33:55.199Z,23.50
2019-03-01T12:34:55.170Z,23.10
2019-03-01T12:35:55.142Z,24.80
2019-03-01T12:36:55.118Z,24.20
2019-03-01T12:37:55.094Z,24.00
2019-03-01T12:38:55.069Z,23.60
2019-03-01T12:39:55.049Z,23.40
2019-03-01T12:40:55.039Z,24.40
2019-03-01T12:41:55.003Z,23.40
2019-03-01T12:42:54.989Z,23.50
2019-03-01T12:43:54.951Z,23.20
2019-03-01T12:44:54.931Z,22.90
2019-03-01T12:45:54.908Z,23.10
2019-03-01T12:46:54.885Z,23.40
2019-03-01T12:47:54.858Z,25.70
2019-03-01T12:48:54.862Z,25.30
2019-03-01T12:49:54.819Z,25.40
2019-03-01T12:50:54.799Z,24.60
2019-03-01T12:51:54.768Z,24.90